sensor_id;sensor_type;location;lat;lon;timestamp;P1;durP1;ratioP1;P2;durP2;ratioP2
7525;SDS011;3804;50.860;6.208;2023-04-01T00:01:10;5.67;;;0.90;;
7525;SDS011;3804;50.860;6.208;2023-04-01T00:03:40;3.30;;;1.07;;
7525;SDS011;3804;50.860;6.208;2023-04-01T00:06:08;2.97;;;1.00;;
7525;SDS011;3804;50.860;6.208;2023-04-01T00:08:35;2.67;;;0.80;;
7525;SDS011;3804;50.860;6.208;2023-04-01T00:11:02;4.33;;;0.80;;
7525;SDS011;3804;50.860;6.208;2023-04-01T00:13:29;1.83;;;0.83;;
7525;SDS011;3804;50.860;6.208;2023-04-01T00:15:56;2.47;;;1.30;;
7525;SDS011;3804;50.860;6.208;2023-04-01T00:18:25;2.97;;;0.87;;
7525;SDS011;3804;50.860;6.208;2023-04-01T00:20:52;3.40;;;0.83;;
7525;SDS011;3804;50.860;6.208;2023-04-01T00:23:19;2.23;;;0.67;;
7525;SDS011;3804;50.860;6.208;2023-04-01T00:25:46;2.50;;;1.00;;
7525;SDS011;3804;50.860;6.208;2023-04-01T00:28:16;1.77;;;0.90;;
7525;SDS011;3804;50.860;6.208;2023-04-01T00:30:43;1.83;;;0.57;;
7525;SDS011;3804;50.860;6.208;2023-04-01T00:33:09;3.90;;;1.23;;
7525;SDS011;3804;50.860;6.208;2023-04-01T00:35:37;2.63;;;0.70;;
7525;SDS011;3804;50.860;6.208;2023-04-01T00:38:04;3.53;;;0.83;;
7525;SDS011;3804;50.860;6.208;2023-04-01T00:40:32;4.93;;;1.17;;
7525;SDS011;3804;50.860;6.208;2023-04-01T00:43:00;4.77;;;0.80;;
7525;SDS011;3804;50.860;6.208;2023-04-01T00:48:02;3.00;;;0.83;;
7525;SDS011;3804;50.860;6.208;2023-04-01T00:50:31;1.90;;;0.67;;
7525;SDS011;3804;50.860;6.208;2023-04-01T00:52:59;1.00;;;0.70;;
7525;SDS011;3804;50.860;6.208;2023-04-01T00:55:26;1.73;;;0.87;;
7525;SDS011;3804;50.860;6.208;2023-04-01T00:57:53;2.57;;;0.80;;
7525;SDS011;3804;50.860;6.208;2023-04-01T01:00:24;2.10;;;0.73;;
7525;SDS011;3804;50.860;6.208;2023-04-01T01:02:53;1.77;;;0.80;;
7525;SDS011;3804;50.860;6.208;2023-04-01T01:05:21;4.67;;;0.87;;
7525;SDS011;3804;50.860;6.208;2023-04-01T01:10:31;0.60;;;0.60;;
7525;SDS011;3804;50.860;6.208;2023-04-01T01:13:10;8.10;;;0.90;;
7525;SDS011;3804;50.860;6.208;2023-04-01T01:28:37;0.10;;;0.10;;
7525;SDS011;3804;50.860;6.208;2023-04-01T01:31:20;0.10;;;0.10;;
7525;SDS011;3804;50.860;6.208;2023-04-01T01:34:01;0.10;;;0.10;;
7525;SDS011;3804;50.860;6.208;2023-04-01T01:36:31;0.10;;;0.10;;
7525;SDS011;3804;50.860;6.208;2023-04-01T01:39:03;0.10;;;0.10;;
7525;SDS011;3804;50.860;6.208;2023-04-01T01:41:31;0.10;;;0.10;;
7525;SDS011;3804;50.860;6.208;2023-04-01T01:43:59;0.10;;;0.10;;
7525;SDS011;3804;50.860;6.208;2023-04-01T01:46:26;0.00;;;0.00;;
7525;SDS011;3804;50.860;6.208;2023-04-01T01:48:55;0.10;;;0.10;;
7525;SDS011;3804;50.860;6.208;2023-04-01T01:51:23;0.10;;;0.10;;
7525;SDS011;3804;50.860;6.208;2023-04-01T01:53:50;0.10;;;0.10;;
7525;SDS011;3804;50.860;6.208;2023-04-01T01:56:20;0.20;;;0.20;;
7525;SDS011;3804;50.860;6.208;2023-04-01T01:58:49;0.10;;;0.10;;
7525;SDS011;3804;50.860;6.208;2023-04-01T02:01:21;0.10;;;0.10;;
7525;SDS011;3804;50.860;6.208;2023-04-01T02:03:50;0.40;;;0.30;;
7525;SDS011;3804;50.860;6.208;2023-04-01T02:06:20;0.40;;;0.40;;
7525;SDS011;3804;50.860;6.208;2023-04-01T02:11:18;0.47;;;0.40;;
7525;SDS011;3804;50.860;6.208;2023-04-01T02:13:54;1.90;;;0.40;;
7525;SDS011;3804;50.860;6.208;2023-04-01T02:16:26;0.67;;;0.30;;
7525;SDS011;3804;50.860;6.208;2023-04-01T02:18:56;1.40;;;0.50;;
7525;SDS011;3804;50.860;6.208;2023-04-01T02:21:26;0.30;;;0.30;;
7525;SDS011;3804;50.860;6.208;2023-04-01T02:23:54;0.70;;;0.30;;
7525;SDS011;3804;50.860;6.208;2023-04-01T02:26:21;0.90;;;0.40;;
7525;SDS011;3804;50.860;6.208;2023-04-01T02:28:49;0.30;;;0.30;;
7525;SDS011;3804;50.860;6.208;2023-04-01T02:31:17;0.60;;;0.50;;
7525;SDS011;3804;50.860;6.208;2023-04-01T02:33:44;0.53;;;0.40;;
7525;SDS011;3804;50.860;6.208;2023-04-01T02:36:14;1.60;;;0.50;;
7525;SDS011;3804;50.860;6.208;2023-04-01T02:38:43;1.87;;;0.50;;
7525;SDS011;3804;50.860;6.208;2023-04-01T02:41:11;0.37;;;0.37;;
7525;SDS011;3804;50.860;6.208;2023-04-01T02:43:38;2.40;;;0.77;;
7525;SDS011;3804;50.860;6.208;2023-04-01T02:46:05;0.40;;;0.40;;
7525;SDS011;3804;50.860;6.208;2023-04-01T02:48:32;1.57;;;0.60;;
7525;SDS011;3804;50.860;6.208;2023-04-01T02:50:58;0.40;;;0.40;;
7525;SDS011;3804;50.860;6.208;2023-04-01T02:53:25;1.77;;;0.40;;
7525;SDS011;3804;50.860;6.208;2023-04-01T02:55:52;0.80;;;0.50;;
7525;SDS011;3804;50.860;6.208;2023-04-01T02:58:19;0.57;;;0.43;;
7525;SDS011;3804;50.860;6.208;2023-04-01T03:00:46;0.93;;;0.30;;
7525;SDS011;3804;50.860;6.208;2023-04-01T03:03:13;0.33;;;0.33;;
7525;SDS011;3804;50.860;6.208;2023-04-01T03:05:40;2.77;;;0.57;;
7525;SDS011;3804;50.860;6.208;2023-04-01T03:08:07;1.13;;;0.53;;
7525;SDS011;3804;50.860;6.208;2023-04-01T03:10:34;0.77;;;0.50;;
7525;SDS011;3804;50.860;6.208;2023-04-01T03:13:02;1.90;;;0.50;;
7525;SDS011;3804;50.860;6.208;2023-04-01T03:15:28;1.47;;;0.70;;
7525;SDS011;3804;50.860;6.208;2023-04-01T03:17:56;0.60;;;0.47;;
7525;SDS011;3804;50.860;6.208;2023-04-01T03:20:23;0.40;;;0.40;;
7525;SDS011;3804;50.860;6.208;2023-04-01T03:22:50;0.97;;;0.53;;
7525;SDS011;3804;50.860;6.208;2023-04-01T03:25:17;0.50;;;0.30;;
7525;SDS011;3804;50.860;6.208;2023-04-01T03:27:44;1.20;;;0.50;;
7525;SDS011;3804;50.860;6.208;2023-04-01T03:30:11;1.07;;;0.30;;
7525;SDS011;3804;50.860;6.208;2023-04-01T03:32:46;0.67;;;0.40;;
7525;SDS011;3804;50.860;6.208;2023-04-01T03:35:13;0.30;;;0.30;;
7525;SDS011;3804;50.860;6.208;2023-04-01T03:37:40;1.10;;;0.43;;
7525;SDS011;3804;50.860;6.208;2023-04-01T03:40:07;1.87;;;0.50;;
7525;SDS011;3804;50.860;6.208;2023-04-01T03:42:34;1.43;;;0.37;;
7525;SDS011;3804;50.860;6.208;2023-04-01T03:45:02;1.30;;;0.40;;
7525;SDS011;3804;50.860;6.208;2023-04-01T03:47:29;1.50;;;0.70;;
7525;SDS011;3804;50.860;6.208;2023-04-01T03:49:56;1.10;;;0.60;;
7525;SDS011;3804;50.860;6.208;2023-04-01T03:52:24;0.77;;;0.37;;
7525;SDS011;3804;50.860;6.208;2023-04-01T03:54:51;0.50;;;0.50;;
7525;SDS011;3804;50.860;6.208;2023-04-01T03:57:17;0.93;;;0.60;;
7525;SDS011;3804;50.860;6.208;2023-04-01T03:59:44;0.10;;;0.10;;
7525;SDS011;3804;50.860;6.208;2023-04-01T04:02:11;0.20;;;0.20;;
7525;SDS011;3804;50.860;6.208;2023-04-01T04:04:39;0.10;;;0.10;;
7525;SDS011;3804;50.860;6.208;2023-04-01T04:07:07;0.10;;;0.10;;
7525;SDS011;3804;50.860;6.208;2023-04-01T04:09:54;0.10;;;0.10;;
7525;SDS011;3804;50.860;6.208;2023-04-01T04:12:20;0.10;;;0.10;;
7525;SDS011;3804;50.860;6.208;2023-04-01T04:14:47;0.10;;;0.10;;
7525;SDS011;3804;50.860;6.208;2023-04-01T04:17:14;0.10;;;0.10;;
7525;SDS011;3804;50.860;6.208;2023-04-01T04:19:43;0.10;;;0.10;;
7525;SDS011;3804;50.860;6.208;2023-04-01T04:22:10;0.10;;;0.10;;
7525;SDS011;3804;50.860;6.208;2023-04-01T04:24:37;0.10;;;0.10;;
7525;SDS011;3804;50.860;6.208;2023-04-01T04:27:08;0.20;;;0.20;;
7525;SDS011;3804;50.860;6.208;2023-04-01T04:29:42;0.10;;;0.10;;
7525;SDS011;3804;50.860;6.208;2023-04-01T04:32:09;0.10;;;0.10;;
7525;SDS011;3804;50.860;6.208;2023-04-01T04:34:36;0.10;;;0.10;;
7525;SDS011;3804;50.860;6.208;2023-04-01T04:37:03;0.10;;;0.10;;
7525;SDS011;3804;50.860;6.208;2023-04-01T04:39:34;0.10;;;0.10;;
7525;SDS011;3804;50.860;6.208;2023-04-01T04:42:01;0.10;;;0.10;;
7525;SDS011;3804;50.860;6.208;2023-04-01T04:44:28;0.00;;;0.00;;
7525;SDS011;3804;50.860;6.208;2023-04-01T04:46:56;0.10;;;0.10;;
7525;SDS011;3804;50.860;6.208;2023-04-01T04:49:24;0.10;;;0.10;;
7525;SDS011;3804;50.860;6.208;2023-04-01T04:51:52;0.10;;;0.10;;
7525;SDS011;3804;50.860;6.208;2023-04-01T04:54:22;0.10;;;0.10;;
7525;SDS011;3804;50.860;6.208;2023-04-01T04:56:55;0.10;;;0.10;;
7525;SDS011;3804;50.860;6.208;2023-04-01T04:59:24;0.10;;;0.10;;
7525;SDS011;3804;50.860;6.208;2023-04-01T05:02:05;0.20;;;0.20;;
7525;SDS011;3804;50.860;6.208;2023-04-01T05:04:35;0.10;;;0.10;;
7525;SDS011;3804;50.860;6.208;2023-04-01T05:07:05;0.10;;;0.10;;
7525;SDS011;3804;50.860;6.208;2023-04-01T05:09:32;0.10;;;0.10;;
7525;SDS011;3804;50.860;6.208;2023-04-01T05:12:01;0.10;;;0.10;;
7525;SDS011;3804;50.860;6.208;2023-04-01T05:14:40;0.10;;;0.10;;
7525;SDS011;3804;50.860;6.208;2023-04-01T05:17:09;0.10;;;0.10;;
7525;SDS011;3804;50.860;6.208;2023-04-01T05:19:37;0.10;;;0.10;;
7525;SDS011;3804;50.860;6.208;2023-04-01T05:22:04;0.10;;;0.10;;
7525;SDS011;3804;50.860;6.208;2023-04-01T05:24:32;0.20;;;0.20;;
7525;SDS011;3804;50.860;6.208;2023-04-01T05:26:59;0.10;;;0.10;;
7525;SDS011;3804;50.860;6.208;2023-04-01T05:29:27;0.20;;;0.20;;
7525;SDS011;3804;50.860;6.208;2023-04-01T05:32:02;0.10;;;0.10;;
7525;SDS011;3804;50.860;6.208;2023-04-01T05:34:28;0.10;;;0.10;;
7525;SDS011;3804;50.860;6.208;2023-04-01T05:36:56;0.10;;;0.10;;
7525;SDS011;3804;50.860;6.208;2023-04-01T05:39:23;0.10;;;0.10;;
7525;SDS011;3804;50.860;6.208;2023-04-01T05:41:50;0.10;;;0.10;;
7525;SDS011;3804;50.860;6.208;2023-04-01T05:44:17;0.10;;;0.10;;
7525;SDS011;3804;50.860;6.208;2023-04-01T05:47:03;0.10;;;0.10;;
7525;SDS011;3804;50.860;6.208;2023-04-01T05:49:30;0.10;;;0.10;;
7525;SDS011;3804;50.860;6.208;2023-04-01T05:51:59;0.10;;;0.10;;
7525;SDS011;3804;50.860;6.208;2023-04-01T05:54:27;0.20;;;0.20;;
7525;SDS011;3804;50.860;6.208;2023-04-01T05:56:54;0.10;;;0.10;;
7525;SDS011;3804;50.860;6.208;2023-04-01T05:59:20;0.10;;;0.10;;
7525;SDS011;3804;50.860;6.208;2023-04-01T06:01:48;0.20;;;0.20;;
7525;SDS011;3804;50.860;6.208;2023-04-01T06:04:15;0.10;;;0.10;;
7525;SDS011;3804;50.860;6.208;2023-04-01T06:06:44;0.13;;;0.13;;
7525;SDS011;3804;50.860;6.208;2023-04-01T06:14:31;0.10;;;0.10;;
7525;SDS011;3804;50.860;6.208;2023-04-01T06:19:38;0.10;;;0.10;;
7525;SDS011;3804;50.860;6.208;2023-04-01T06:27:37;0.10;;;0.10;;
7525;SDS011;3804;50.860;6.208;2023-04-01T06:35:53;0.10;;;0.10;;
7525;SDS011;3804;50.860;6.208;2023-04-01T06:38:29;0.10;;;0.10;;
7525;SDS011;3804;50.860;6.208;2023-04-01T06:43:49;0.77;;;0.77;;
7525;SDS011;3804;50.860;6.208;2023-04-01T06:54:48;0.10;;;0.10;;
7525;SDS011;3804;50.860;6.208;2023-04-01T06:57:43;0.10;;;0.10;;
7525;SDS011;3804;50.860;6.208;2023-04-01T07:00:56;0.10;;;0.10;;
7525;SDS011;3804;50.860;6.208;2023-04-01T07:05:33;0.10;;;0.10;;
7525;SDS011;3804;50.860;6.208;2023-04-01T07:08:02;0.20;;;0.20;;
7525;SDS011;3804;50.860;6.208;2023-04-01T07:10:50;0.10;;;0.10;;
7525;SDS011;3804;50.860;6.208;2023-04-01T07:13:42;0.10;;;0.10;;
7525;SDS011;3804;50.860;6.208;2023-04-01T07:16:17;0.10;;;0.10;;
7525;SDS011;3804;50.860;6.208;2023-04-01T07:21:26;0.10;;;0.10;;
7525;SDS011;3804;50.860;6.208;2023-04-01T07:23:59;0.10;;;0.10;;
7525;SDS011;3804;50.860;6.208;2023-04-01T07:26:41;0.10;;;0.10;;
7525;SDS011;3804;50.860;6.208;2023-04-01T07:29:14;0.10;;;0.10;;
7525;SDS011;3804;50.860;6.208;2023-04-01T07:34:42;0.10;;;0.10;;
7525;SDS011;3804;50.860;6.208;2023-04-01T07:37:17;0.10;;;0.10;;
7525;SDS011;3804;50.860;6.208;2023-04-01T07:45:09;0.10;;;0.10;;
7525;SDS011;3804;50.860;6.208;2023-04-01T07:55:49;0.10;;;0.10;;
7525;SDS011;3804;50.860;6.208;2023-04-01T07:58:42;0.10;;;0.10;;
7525;SDS011;3804;50.860;6.208;2023-04-01T08:03:54;0.10;;;0.10;;
7525;SDS011;3804;50.860;6.208;2023-04-01T08:07:08;0.10;;;0.10;;
7525;SDS011;3804;50.860;6.208;2023-04-01T08:12:10;0.10;;;0.10;;
7525;SDS011;3804;50.860;6.208;2023-04-01T08:15:03;0.10;;;0.10;;
7525;SDS011;3804;50.860;6.208;2023-04-01T08:25:30;0.10;;;0.10;;
7525;SDS011;3804;50.860;6.208;2023-04-01T08:30:42;0.17;;;0.17;;
7525;SDS011;3804;50.860;6.208;2023-04-01T08:33:25;0.10;;;0.10;;
7525;SDS011;3804;50.860;6.208;2023-04-01T08:36:05;0.10;;;0.10;;
7525;SDS011;3804;50.860;6.208;2023-04-01T08:38:38;0.10;;;0.10;;
7525;SDS011;3804;50.860;6.208;2023-04-01T08:41:10;0.10;;;0.10;;
7525;SDS011;3804;50.860;6.208;2023-04-01T08:57:50;0.10;;;0.10;;
7525;SDS011;3804;50.860;6.208;2023-04-01T09:00:57;0.10;;;0.10;;
7525;SDS011;3804;50.860;6.208;2023-04-01T09:09:31;0.10;;;0.10;;
7525;SDS011;3804;50.860;6.208;2023-04-01T09:12:08;0.10;;;0.10;;
7525;SDS011;3804;50.860;6.208;2023-04-01T09:22:47;0.17;;;0.17;;
7525;SDS011;3804;50.860;6.208;2023-04-01T09:25:21;0.10;;;0.10;;
7525;SDS011;3804;50.860;6.208;2023-04-01T09:27:54;0.20;;;0.20;;
7525;SDS011;3804;50.860;6.208;2023-04-01T09:38:22;0.23;;;0.23;;
7525;SDS011;3804;50.860;6.208;2023-04-01T09:40:58;0.13;;;0.13;;
7525;SDS011;3804;50.860;6.208;2023-04-01T09:43:55;0.10;;;0.10;;
7525;SDS011;3804;50.860;6.208;2023-04-01T09:46:30;0.10;;;0.10;;
7525;SDS011;3804;50.860;6.208;2023-04-01T09:49:18;0.10;;;0.10;;
7525;SDS011;3804;50.860;6.208;2023-04-01T10:10:34;0.20;;;0.20;;
7525;SDS011;3804;50.860;6.208;2023-04-01T10:20:44;0.10;;;0.10;;
7525;SDS011;3804;50.860;6.208;2023-04-01T10:31:28;0.10;;;0.10;;
7525;SDS011;3804;50.860;6.208;2023-04-01T10:36:52;0.10;;;0.10;;
7525;SDS011;3804;50.860;6.208;2023-04-01T11:15:58;0.20;;;0.20;;
7525;SDS011;3804;50.860;6.208;2023-04-01T11:24:11;1.10;;;1.07;;
7525;SDS011;3804;50.860;6.208;2023-04-01T11:32:29;0.20;;;0.20;;
7525;SDS011;3804;50.860;6.208;2023-04-01T11:35:09;0.10;;;0.10;;
7525;SDS011;3804;50.860;6.208;2023-04-01T11:37:46;0.10;;;0.10;;
7525;SDS011;3804;50.860;6.208;2023-04-01T12:08:07;0.10;;;0.10;;
7525;SDS011;3804;50.860;6.208;2023-04-01T12:10:39;0.10;;;0.10;;
7525;SDS011;3804;50.860;6.208;2023-04-01T12:29:07;0.10;;;0.10;;
7525;SDS011;3804;50.860;6.208;2023-04-01T12:48:05;0.10;;;0.10;;
7525;SDS011;3804;50.860;6.208;2023-04-01T12:57:53;0.10;;;0.10;;
7525;SDS011;3804;50.860;6.208;2023-04-01T13:08:18;0.10;;;0.10;;
7525;SDS011;3804;50.860;6.208;2023-04-01T13:23:57;0.20;;;0.20;;
7525;SDS011;3804;50.860;6.208;2023-04-01T13:28:56;0.10;;;0.10;;
7525;SDS011;3804;50.860;6.208;2023-04-01T13:36:57;0.10;;;0.10;;
7525;SDS011;3804;50.860;6.208;2023-04-01T13:39:35;0.10;;;0.10;;
7525;SDS011;3804;50.860;6.208;2023-04-01T13:47:23;0.10;;;0.10;;
7525;SDS011;3804;50.860;6.208;2023-04-01T13:50:01;0.20;;;0.20;;
7525;SDS011;3804;50.860;6.208;2023-04-01T13:55:19;0.10;;;0.10;;
7525;SDS011;3804;50.860;6.208;2023-04-01T14:10:43;0.20;;;0.20;;
7525;SDS011;3804;50.860;6.208;2023-04-01T14:18:33;0.10;;;0.10;;
7525;SDS011;3804;50.860;6.208;2023-04-01T14:31:50;0.10;;;0.10;;
7525;SDS011;3804;50.860;6.208;2023-04-01T14:34:03;0.10;;;0.10;;
7525;SDS011;3804;50.860;6.208;2023-04-01T14:36:35;0.10;;;0.10;;
7525;SDS011;3804;50.860;6.208;2023-04-01T14:47:08;0.10;;;0.10;;
7525;SDS011;3804;50.860;6.208;2023-04-01T14:49:46;0.10;;;0.10;;
7525;SDS011;3804;50.860;6.208;2023-04-01T14:52:30;0.10;;;0.10;;
7525;SDS011;3804;50.860;6.208;2023-04-01T14:55:01;0.10;;;0.10;;
7525;SDS011;3804;50.860;6.208;2023-04-01T14:57:30;0.20;;;0.20;;
7525;SDS011;3804;50.860;6.208;2023-04-01T15:08:00;0.13;;;0.13;;
7525;SDS011;3804;50.860;6.208;2023-04-01T15:13:04;0.10;;;0.10;;
7525;SDS011;3804;50.860;6.208;2023-04-01T15:15:36;0.10;;;0.10;;
7525;SDS011;3804;50.860;6.208;2023-04-01T15:18:07;0.20;;;0.20;;
7525;SDS011;3804;50.860;6.208;2023-04-01T15:26:08;0.20;;;0.20;;
7525;SDS011;3804;50.860;6.208;2023-04-01T15:31:25;0.20;;;0.20;;
7525;SDS011;3804;50.860;6.208;2023-04-01T15:36:44;0.13;;;0.13;;
7525;SDS011;3804;50.860;6.208;2023-04-01T15:39:14;0.47;;;0.47;;
7525;SDS011;3804;50.860;6.208;2023-04-01T15:41:49;0.10;;;0.10;;
7525;SDS011;3804;50.860;6.208;2023-04-01T15:49:44;0.10;;;0.10;;
7525;SDS011;3804;50.860;6.208;2023-04-01T15:52:20;0.50;;;0.50;;
7525;SDS011;3804;50.860;6.208;2023-04-01T15:55:01;0.10;;;0.10;;
7525;SDS011;3804;50.860;6.208;2023-04-01T16:08:11;0.17;;;0.17;;
7525;SDS011;3804;50.860;6.208;2023-04-01T16:16:00;0.20;;;0.20;;
7525;SDS011;3804;50.860;6.208;2023-04-01T16:18:39;0.10;;;0.10;;
7525;SDS011;3804;50.860;6.208;2023-04-01T16:21:21;0.10;;;0.10;;
7525;SDS011;3804;50.860;6.208;2023-04-01T16:23:58;0.20;;;0.20;;
7525;SDS011;3804;50.860;6.208;2023-04-01T16:26:28;0.10;;;0.10;;
7525;SDS011;3804;50.860;6.208;2023-04-01T16:31:46;0.20;;;0.20;;
7525;SDS011;3804;50.860;6.208;2023-04-01T16:36:49;0.10;;;0.10;;
7525;SDS011;3804;50.860;6.208;2023-04-01T16:39:27;0.20;;;0.20;;
7525;SDS011;3804;50.860;6.208;2023-04-01T16:44:44;0.10;;;0.10;;
7525;SDS011;3804;50.860;6.208;2023-04-01T16:47:14;0.20;;;0.20;;
7525;SDS011;3804;50.860;6.208;2023-04-01T16:49:59;0.20;;;0.20;;
7525;SDS011;3804;50.860;6.208;2023-04-01T16:52:32;0.30;;;0.30;;
7525;SDS011;3804;50.860;6.208;2023-04-01T16:55:12;0.20;;;0.20;;
7525;SDS011;3804;50.860;6.208;2023-04-01T16:57:51;0.20;;;0.20;;
7525;SDS011;3804;50.860;6.208;2023-04-01T17:00:31;0.20;;;0.20;;
7525;SDS011;3804;50.860;6.208;2023-04-01T17:15:42;0.13;;;0.13;;
7525;SDS011;3804;50.860;6.208;2023-04-01T17:29:14;0.20;;;0.20;;
7525;SDS011;3804;50.860;6.208;2023-04-01T17:31:37;0.10;;;0.10;;
7525;SDS011;3804;50.860;6.208;2023-04-01T17:44:34;0.10;;;0.10;;
7525;SDS011;3804;50.860;6.208;2023-04-01T17:50:02;0.33;;;0.33;;
7525;SDS011;3804;50.860;6.208;2023-04-01T18:00:18;0.10;;;0.10;;
7525;SDS011;3804;50.860;6.208;2023-04-01T18:03:04;0.10;;;0.10;;
7525;SDS011;3804;50.860;6.208;2023-04-01T18:15:38;0.20;;;0.20;;
7525;SDS011;3804;50.860;6.208;2023-04-01T18:23:36;0.10;;;0.10;;
7525;SDS011;3804;50.860;6.208;2023-04-01T18:26:10;0.57;;;0.57;;
7525;SDS011;3804;50.860;6.208;2023-04-01T18:28:41;0.20;;;0.20;;
7525;SDS011;3804;50.860;6.208;2023-04-01T18:34:14;0.10;;;0.10;;
7525;SDS011;3804;50.860;6.208;2023-04-01T18:36:49;0.10;;;0.10;;
7525;SDS011;3804;50.860;6.208;2023-04-01T18:47:14;0.10;;;0.10;;
7525;SDS011;3804;50.860;6.208;2023-04-01T18:49:46;0.37;;;0.30;;
7525;SDS011;3804;50.860;6.208;2023-04-01T18:52:25;0.20;;;0.20;;
7525;SDS011;3804;50.860;6.208;2023-04-01T18:57:38;0.10;;;0.10;;
7525;SDS011;3804;50.860;6.208;2023-04-01T19:00:14;0.13;;;0.13;;
7525;SDS011;3804;50.860;6.208;2023-04-01T19:05:42;0.20;;;0.20;;
7525;SDS011;3804;50.860;6.208;2023-04-01T19:08:25;0.10;;;0.10;;
7525;SDS011;3804;50.860;6.208;2023-04-01T19:11:02;0.10;;;0.10;;
7525;SDS011;3804;50.860;6.208;2023-04-01T19:16:10;0.10;;;0.10;;
7525;SDS011;3804;50.860;6.208;2023-04-01T19:21:11;0.10;;;0.10;;
7525;SDS011;3804;50.860;6.208;2023-04-01T19:23:56;0.20;;;0.20;;
7525;SDS011;3804;50.860;6.208;2023-04-01T19:28:55;0.10;;;0.10;;
7525;SDS011;3804;50.860;6.208;2023-04-01T19:31:35;0.20;;;0.20;;
7525;SDS011;3804;50.860;6.208;2023-04-01T19:34:12;0.17;;;0.17;;
7525;SDS011;3804;50.860;6.208;2023-04-01T19:36:48;0.20;;;0.20;;
7525;SDS011;3804;50.860;6.208;2023-04-01T19:44:38;0.30;;;0.30;;
7525;SDS011;3804;50.860;6.208;2023-04-01T19:52:15;0.10;;;0.10;;
7525;SDS011;3804;50.860;6.208;2023-04-01T19:55:03;0.10;;;0.10;;
7525;SDS011;3804;50.860;6.208;2023-04-01T20:10:45;0.13;;;0.13;;
7525;SDS011;3804;50.860;6.208;2023-04-01T20:13:34;0.20;;;0.20;;
7525;SDS011;3804;50.860;6.208;2023-04-01T20:16:07;0.10;;;0.10;;
7525;SDS011;3804;50.860;6.208;2023-04-01T20:18:39;0.10;;;0.10;;
7525;SDS011;3804;50.860;6.208;2023-04-01T20:21:24;0.20;;;0.20;;
7525;SDS011;3804;50.860;6.208;2023-04-01T20:26:20;0.13;;;0.13;;
7525;SDS011;3804;50.860;6.208;2023-04-01T20:29:07;0.20;;;0.20;;
7525;SDS011;3804;50.860;6.208;2023-04-01T20:31:42;0.10;;;0.10;;
7525;SDS011;3804;50.860;6.208;2023-04-01T20:49:49;0.10;;;0.10;;
7525;SDS011;3804;50.860;6.208;2023-04-01T20:53:04;0.10;;;0.10;;
7525;SDS011;3804;50.860;6.208;2023-04-01T21:03:23;0.13;;;0.13;;
7525;SDS011;3804;50.860;6.208;2023-04-01T21:11:25;0.30;;;0.30;;
7525;SDS011;3804;50.860;6.208;2023-04-01T21:26:42;0.10;;;0.10;;
7525;SDS011;3804;50.860;6.208;2023-04-01T21:34:32;0.20;;;0.20;;
7525;SDS011;3804;50.860;6.208;2023-04-01T21:37:17;0.10;;;0.10;;
7525;SDS011;3804;50.860;6.208;2023-04-01T21:45:24;0.20;;;0.20;;
7525;SDS011;3804;50.860;6.208;2023-04-01T22:08:47;0.10;;;0.10;;
7525;SDS011;3804;50.860;6.208;2023-04-01T22:11:27;0.10;;;0.10;;
7525;SDS011;3804;50.860;6.208;2023-04-01T22:24:16;0.10;;;0.10;;
7525;SDS011;3804;50.860;6.208;2023-04-01T22:26:48;0.20;;;0.20;;
7525;SDS011;3804;50.860;6.208;2023-04-01T22:31:44;0.10;;;0.10;;
7525;SDS011;3804;50.860;6.208;2023-04-01T22:34:17;0.10;;;0.10;;
7525;SDS011;3804;50.860;6.208;2023-04-01T22:49:20;0.10;;;0.10;;
7525;SDS011;3804;50.860;6.208;2023-04-01T22:52:05;0.20;;;0.20;;
7525;SDS011;3804;50.860;6.208;2023-04-01T22:54:39;0.10;;;0.10;;
7525;SDS011;3804;50.860;6.208;2023-04-01T22:57:12;0.10;;;0.10;;
7525;SDS011;3804;50.860;6.208;2023-04-01T23:02:13;0.20;;;0.20;;
7525;SDS011;3804;50.860;6.208;2023-04-01T23:04:42;0.10;;;0.10;;
7525;SDS011;3804;50.860;6.208;2023-04-01T23:07:30;0.17;;;0.17;;
7525;SDS011;3804;50.860;6.208;2023-04-01T23:10:04;0.10;;;0.10;;
7525;SDS011;3804;50.860;6.208;2023-04-01T23:12:32;0.10;;;0.10;;
7525;SDS011;3804;50.860;6.208;2023-04-01T23:15:00;0.20;;;0.20;;
7525;SDS011;3804;50.860;6.208;2023-04-01T23:27:56;0.10;;;0.10;;
7525;SDS011;3804;50.860;6.208;2023-04-01T23:38:23;0.10;;;0.10;;
7525;SDS011;3804;50.860;6.208;2023-04-01T23:40:51;0.10;;;0.10;;
7525;SDS011;3804;50.860;6.208;2023-04-01T23:43:25;0.10;;;0.10;;
7525;SDS011;3804;50.860;6.208;2023-04-01T23:45:56;0.10;;;0.10;;
7525;SDS011;3804;50.860;6.208;2023-04-01T23:48:26;0.10;;;0.10;;
7525;SDS011;3804;50.860;6.208;2023-04-01T23:50:54;0.50;;;0.50;;
7525;SDS011;3804;50.860;6.208;2023-04-01T23:53:23;0.20;;;0.20;;
7525;SDS011;3804;50.860;6.208;2023-04-01T23:55:51;0.20;;;0.20;;
7525;SDS011;3804;50.860;6.208;2023-04-01T23:58:22;0.10;;;0.10;;
